Time;durP1;ratioP1;P1;durP2;ratioP2;P2;SDS_P1;SDS_P2;PMS_P1;PMS_P2;Temp;Humidity;BMP_temperature;BMP_pressure;BME280_temperature;BME280_humidity;BME280_pressure;Samples;Min_cycle;Max_cycle;Signal;HPM_P1;HPM_P2
2023/10/11 00:01:01;;;;;;;13.40;6.20;;;;;;;-145.18;100.00;46679.94;5034743;28;20030;-58
2023/10/11 00:05:53;;;;;;;16.03;6.43;;;;;;;-145.18;100.00;46670.16;5034549;28;20040;-58
2023/10/11 00:08:19;;;;;;;8.87;5.70;;;;;;;-145.18;100.00;46683.84;5034030;28;20026;-58
2023/10/11 00:10:55;;;;;;;13.63;6.20;;;;;;;-145.18;100.00;46676.03;5033715;28;20124;-59
2023/10/11 00:13:22;;;;;;;10.37;5.67;;;;;;;-145.18;100.00;46670.16;5021741;28;20507;-59
2023/10/11 00:15:50;;;;;;;11.53;5.97;;;;;;;-145.18;100.00;46668.22;5033813;28;20064;-59
2023/10/11 00:18:20;;;;;;;14.30;6.50;;;;;;;-145.18;100.00;46666.25;5034865;28;20017;-59
2023/10/11 00:20:50;;;;;;;13.60;6.60;;;;;;;-145.18;100.00;46672.13;5034882;28;20064;-59
2023/10/11 00:23:17;;;;;;;19.73;7.00;;;;;;;-145.18;100.00;46676.03;5034725;28;20096;-59
2023/10/11 00:25:44;;;;;;;16.93;7.13;;;;;;;-145.18;100.00;46674.06;5033627;28;20481;-59
2023/10/11 00:28:12;;;;;;;14.87;6.77;;;;;;;-145.18;100.00;46666.25;5033993;28;20117;-59
2023/10/11 00:30:38;;;;;;;13.73;6.60;;;;;;;-145.18;100.00;46664.31;5034190;28;20047;-59
2023/10/11 00:33:10;;;;;;;10.03;5.80;;;;;;;-145.18;100.00;46670.16;5034573;28;20489;-64
2023/10/11 00:35:56;;;;;;;10.73;6.80;;;;;;;-145.18;100.00;46666.25;5034097;28;20028;-64
2023/10/11 00:38:27;;;;;;;12.32;6.57;;;;;;;-145.18;100.00;46662.34;5033965;28;20124;-64
2023/10/11 00:41:40;;;;;;;17.10;7.00;;;;;;;-145.18;100.00;46666.25;5021221;28;20036;-64
2023/10/11 00:43:52;;;;;;;10.70;6.20;;;;;;;-145.18;100.00;46668.22;5033197;28;20489;-64
2023/10/11 00:46:24;;;;;;;14.27;7.73;;;;;;;-145.18;100.00;46660.41;5031389;28;20026;-64
2023/10/11 00:49:02;;;;;;;16.73;7.43;;;;;;;-145.18;100.00;46664.31;5034068;28;20021;-63
2023/10/11 00:51:29;;;;;;;16.27;6.63;;;;;;;-145.18;100.00;46662.34;5033773;28;20104;-64
2023/10/11 00:53:56;;;;;;;21.40;7.40;;;;;;;-145.18;100.00;46660.41;5020801;28;20025;-64
2023/10/11 00:56:22;;;;;;;14.57;7.50;;;;;;;-145.18;100.00;46664.31;5033598;28;20025;-64
2023/10/11 00:58:52;;;;;;;11.87;6.70;;;;;;;-145.18;100.00;46652.59;5033839;28;20083;-64
2023/10/11 01:01:17;;;;;;;11.77;6.73;;;;;;;-145.18;100.00;46658.44;5032733;28;20030;-63
2023/10/11 01:03:43;;;;;;;13.37;8.07;;;;;;;-145.18;100.00;46656.50;5031271;28;20397;-63
2023/10/11 01:06:12;;;;;;;15.60;7.30;;;;;;;-145.18;100.00;46662.34;5033002;28;20563;-64
2023/10/11 01:08:39;;;;;;;14.57;7.50;;;;;;;-145.18;100.00;46658.44;5033892;28;20029;-64
2023/10/11 01:11:12;;;;;;;12.47;7.10;;;;;;;-145.18;100.00;46656.50;5033119;28;20067;-63
2023/10/11 01:13:42;;;;;;;15.73;7.40;;;;;;;-145.18;100.00;46654.53;5033565;28;20044;-64
2023/10/11 01:16:11;;;;;;;16.93;7.17;;;;;;;-145.18;100.00;46664.31;5033057;28;20409;-64
2023/10/11 01:18:42;;;;;;;15.50;7.57;;;;;;;-145.18;100.00;46656.50;5033767;28;20025;-64
2023/10/11 01:21:08;;;;;;;14.27;8.17;;;;;;;-145.18;100.00;46650.63;5033384;28;20088;-64
2023/10/11 01:23:35;;;;;;;13.60;8.07;;;;;;;-145.18;100.00;46656.50;5033101;28;20045;-64
2023/10/11 01:26:07;;;;;;;19.57;7.53;;;;;;;-145.18;100.00;46656.50;5033072;28;20365;-63
2023/10/11 01:28:37;;;;;;;16.53;7.87;;;;;;;-145.18;100.00;46654.53;5033401;28;20021;-64
2023/10/11 01:31:08;;;;;;;19.10;8.80;;;;;;;-145.18;100.00;46656.50;5033001;28;20080;-64
2023/10/11 01:33:40;;;;;;;15.70;8.00;;;;;;;-145.18;100.00;46654.53;5032998;28;20025;-64
2023/10/11 01:36:08;;;;;;;15.80;7.90;;;;;;;-145.18;100.00;46654.53;5031460;28;20033;-64
2023/10/11 01:38:45;;;;;;;16.07;8.87;;;;;;;-145.18;100.00;46656.50;5032952;28;20029;-63
2023/10/11 01:41:13;;;;;;;18.43;7.67;;;;;;;-145.18;100.00;46656.50;5032844;28;20048;-64
2023/10/11 01:43:38;;;;;;;17.17;8.27;;;;;;;-145.18;100.00;46660.41;5030126;28;20433;-59
2023/10/11 01:46:04;;;;;;;16.70;9.20;;;;;;;-145.18;100.00;46656.50;5032398;28;20083;-59
2023/10/11 01:48:29;;;;;;;18.07;8.67;;;;;;;-145.18;100.00;46656.50;5032830;28;20055;-59
2023/10/11 01:51:07;;;;;;;17.87;9.03;;;;;;;-145.18;100.00;46652.59;5031210;28;20079;-59
2023/10/11 01:53:33;;;;;;;14.50;7.97;;;;;;;-145.18;100.00;46652.59;5032412;28;20025;-59
2023/10/11 01:55:58;;;;;;;16.73;8.80;;;;;;;-145.18;100.00;46652.59;5024557;28;20045;-59
2023/10/11 01:58:24;;;;;;;18.20;8.00;;;;;;;-145.18;100.00;46656.50;5027409;28;20430;-59
2023/10/11 02:00:49;;;;;;;13.20;8.67;;;;;;;-145.18;100.00;46658.44;5031546;28;20121;-59
2023/10/11 02:03:15;;;;;;;15.47;8.73;;;;;;;-145.18;100.00;46654.53;5032804;28;20080;-59
2023/10/11 02:05:41;;;;;;;22.03;8.87;;;;;;;-145.18;100.00;46654.53;5031018;28;20045;-59
2023/10/11 02:08:11;;;;;;;25.60;10.17;;;;;;;-145.18;100.00;46652.59;5030885;28;20029;-60
2023/10/11 02:10:36;;;;;;;17.07;9.40;;;;;;;-145.18;100.00;46654.53;5032114;28;20509;-59
2023/10/11 02:13:04;;;;;;;15.97;9.57;;;;;;;-145.18;100.00;46650.63;5030959;28;20037;-59
2023/10/11 02:15:30;;;;;;;15.77;9.00;;;;;;;-145.18;100.00;46652.59;5032053;28;20025;-59
2023/10/11 02:17:56;;;;;;;15.90;8.50;;;;;;;-145.18;100.00;46654.53;5032332;28;20112;-59
2023/10/11 02:20:22;;;;;;;16.20;9.40;;;;;;;-145.18;100.00;46648.69;5032383;28;20033;-59
2023/10/11 02:22:52;;;;;;;18.93;8.33;;;;;;;-145.18;100.00;46652.59;5031909;28;20022;-59
2023/10/11 02:25:24;;;;;;;15.00;8.53;;;;;;;-145.18;100.00;46650.63;5030467;28;20560;-59
2023/10/11 02:27:50;;;;;;;17.50;8.97;;;;;;;-145.18;100.00;46654.53;5032058;28;20493;-59
2023/10/11 02:30:26;;;;;;;19.60;8.80;;;;;;;-145.18;100.00;46650.63;5019342;28;20524;-59
2023/10/11 02:32:53;;;;;;;20.75;8.77;;;;;;;-145.18;100.00;46650.63;5019903;28;20112;-59
2023/10/11 02:35:19;;;;;;;17.97;9.63;;;;;;;-145.18;100.00;46648.69;5031916;28;20065;-59
2023/10/11 02:37:46;;;;;;;18.23;9.37;;;;;;;-145.18;100.00;46652.59;5032385;28;20049;-59
2023/10/11 02:40:16;;;;;;;23.33;9.23;;;;;;;-145.18;100.00;46652.59;5032026;28;20037;-59
2023/10/11 02:42:46;;;;;;;18.90;9.27;;;;;;;-145.18;100.00;46644.78;5031728;28;20033;-60
2023/10/11 02:45:13;;;;;;;17.23;9.10;;;;;;;-145.18;100.00;46648.69;5031468;28;20068;-59
2023/10/11 02:47:41;;;;;;;16.90;9.27;;;;;;;-145.18;100.00;46644.78;5031980;28;20040;-59
2023/10/11 02:50:10;;;;;;;16.50;9.53;;;;;;;-145.18;100.00;46650.63;5031574;28;20044;-60
2023/10/11 02:52:36;;;;;;;15.33;9.10;;;;;;;-145.18;100.00;46652.59;5031832;28;20026;-64
2023/10/11 02:55:38;;;;;;;15.07;8.63;;;;;;;-145.18;100.00;46648.69;5031617;28;20064;-64
2023/10/11 02:58:06;;;;;;;18.53;10.00;;;;;;;-145.18;100.00;46648.69;5031357;28;20041;-64
2023/10/11 03:00:33;;;;;;;17.20;9.57;;;;;;;-145.18;100.00;46650.63;5019920;28;20095;-64
2023/10/11 03:02:58;;;;;;;19.37;10.33;;;;;;;-145.18;100.00;46648.69;5031343;28;20482;-64
2023/10/11 03:05:27;;;;;;;22.17;10.60;;;;;;;-145.18;100.00;46648.69;5031589;28;20037;-64
2023/10/11 03:08:13;;;;;;;23.33;9.97;;;;;;;-145.18;100.00;46644.78;5031105;28;20042;-63
2023/10/11 03:10:43;;;;;;;22.00;10.23;;;;;;;-145.18;100.00;46652.59;5031939;28;20048;-63
2023/10/11 03:13:19;;;;;;;17.47;9.97;;;;;;;-145.18;100.00;46652.59;5031441;28;20037;-64
2023/10/11 03:15:56;;;;;;;23.50;11.10;;;;;;;-145.18;100.00;46646.72;5031533;28;20041;-64
2023/10/11 03:18:32;;;;;;;18.00;10.03;;;;;;;-145.18;100.00;46646.72;5019618;28;20371;-64
2023/10/11 03:21:08;;;;;;;17.00;9.30;;;;;;;-145.18;100.00;46656.50;5031716;28;20037;-64
2023/10/11 03:23:43;;;;;;;14.67;8.97;;;;;;;-145.18;100.00;46646.72;5030884;28;20049;-64
2023/10/11 03:26:22;;;;;;;17.37;9.33;;;;;;;-145.18;100.00;46646.72;5031321;28;20033;-63
2023/10/11 03:28:57;;;;;;;19.43;10.10;;;;;;;-145.18;100.00;46648.69;5030156;28;20025;-64
2023/10/11 03:31:28;;;;;;;19.75;8.82;;;;;;;-145.18;100.00;46648.69;5031420;28;20018;-64
2023/10/11 03:33:57;;;;;;;22.23;10.33;;;;;;;-145.18;100.00;46646.72;5030771;28;20026;-64
2023/10/11 03:36:43;;;;;;;19.23;10.33;;;;;;;-145.18;100.00;46650.63;5031382;28;20032;-63
2023/10/11 03:39:12;;;;;;;47.00;10.80;;;;;;;-145.18;100.00;46648.69;5031116;28;20021;-64
2023/10/11 03:41:44;;;;;;;19.47;9.53;;;;;;;-145.18;100.00;46648.69;5031428;28;20034;-64
2023/10/11 03:44:10;;;;;;;15.97;9.80;;;;;;;-145.18;100.00;46648.69;5030904;28;20021;-64
2023/10/11 03:46:37;;;;;;;21.30;9.43;;;;;;;-145.18;100.00;46650.63;5026873;28;20386;-64
2023/10/11 03:51:49;;;;;;;18.40;9.60;;;;;;;-145.18;100.00;46648.69;5019943;28;20049;-64
2023/10/11 03:54:21;;;;;;;22.83;10.80;;;;;;;-145.18;100.00;46650.63;5031192;28;20083;-64
2023/10/11 03:56:53;;;;;;;21.27;10.00;;;;;;;-145.18;100.00;46650.63;5023492;28;20017;-64
2023/10/11 03:59:26;;;;;;;15.87;9.27;;;;;;;-145.18;100.00;46652.59;5014464;28;20030;-64
2023/10/11 04:01:52;;;;;;;27.90;9.87;;;;;;;-145.18;100.00;46650.63;5033609;28;20033;-61
2023/10/11 04:04:20;;;;;;;20.83;10.13;;;;;;;-145.18;100.00;46650.63;5031130;28;20033;-61
2023/10/11 04:06:51;;;;;;;20.90;10.10;;;;;;;-145.18;100.00;46650.63;5028260;28;20034;-61
2023/10/11 04:09:31;;;;;;;16.97;9.93;;;;;;;-145.18;100.00;46648.69;5025527;28;20033;-61
2023/10/11 04:12:00;;;;;;;19.87;9.33;;;;;;;-145.18;100.00;46648.69;5024944;28;20069;-61
2023/10/11 04:14:45;;;;;;;19.57;9.80;;;;;;;-145.18;100.00;46648.69;5026613;28;20443;-58
2023/10/11 04:20:17;;;;;;;20.77;10.90;;;;;;;-145.18;100.00;46646.72;5028204;28;20039;-60
2023/10/11 04:22:53;;;;;;;22.23;9.90;;;;;;;-145.18;100.00;46650.63;5031464;28;20029;-58
2023/10/11 04:25:22;;;;;;;19.73;9.50;;;;;;;-145.18;100.00;46648.69;5033737;28;20057;-59
2023/10/11 04:27:56;;;;;;;19.17;10.37;;;;;;;-145.18;100.00;46648.69;5034543;28;20048;-58
2023/10/11 04:30:27;;;;;;;16.90;10.07;;;;;;;-145.18;100.00;46648.69;5034346;28;20505;-60
2023/10/11 04:32:56;;;;;;;19.73;10.80;;;;;;;-145.18;100.00;46648.69;5034580;28;20033;-59
2023/10/11 04:35:25;;;;;;;16.20;9.77;;;;;;;-145.18;100.00;46646.72;5034244;28;20025;-60
2023/10/11 04:37:54;;;;;;;19.97;10.33;;;;;;;-145.18;100.00;46646.72;5034340;28;20524;-60
2023/10/11 04:43:06;;;;;;;22.60;10.13;;;;;;;-145.18;100.00;46642.81;5034418;28;20076;-60
2023/10/11 04:45:44;;;;;;;27.67;9.63;;;;;;;-145.18;100.00;46642.81;5034117;28;20029;-60
2023/10/11 04:48:30;;;;;;;16.23;9.73;;;;;;;-145.18;100.00;46650.63;5024272;28;20129;-60
2023/10/11 04:53:54;;;;;;;20.20;10.30;;;;;;;-145.18;100.00;46650.63;5031821;28;20389;-60
2023/10/11 04:59:09;;;;;;;16.77;9.82;;;;;;;-145.18;100.00;46650.63;5030420;28;20056;-60
2023/10/11 05:04:17;;;;;;;18.33;9.57;;;;;;;-145.18;100.00;46646.72;5033688;28;20025;-60
2023/10/11 05:06:43;;;;;;;19.07;10.47;;;;;;;-145.18;100.00;46650.63;5025179;28;20099;-60
2023/10/11 05:11:53;;;;;;;19.20;10.67;;;;;;;-145.18;100.00;46652.59;5032835;28;20430;-65
2023/10/11 05:14:40;;;;;;;20.98;10.73;;;;;;;-145.18;100.00;46644.78;5024840;28;20045;-60
2023/10/11 05:19:45;;;;;;;25.90;10.33;;;;;;;-145.18;100.00;46644.78;5032408;28;20508;-60
2023/10/11 05:23:05;;;;;;;21.97;10.90;;;;;;;-145.18;100.00;46642.81;5033154;28;20056;-60
2023/10/11 05:32:42;;;;;;;21.00;10.80;;;;;;;-145.18;100.00;46676.03;5031969;28;20033;-61
2023/10/11 05:51:26;;;;;;;19.33;9.88;;;;;;;-145.18;100.00;46642.81;5032467;28;20049;-60
2023/10/11 05:53:52;;;;;;;20.33;11.80;;;;;;;-145.18;100.00;46638.91;5032695;28;20033;-60
2023/10/11 05:56:20;;;;;;;20.70;11.50;;;;;;;-145.18;100.00;46638.91;5032714;28;20120;-60
2023/10/11 05:58:50;;;;;;;23.37;11.17;;;;;;;-145.18;100.00;46640.88;5032964;28;20124;-60
2023/10/11 06:01:21;;;;;;;24.83;10.27;;;;;;;-145.18;100.00;46640.88;5032727;28;20033;-60
2023/10/11 06:03:55;;;;;;;24.70;11.53;;;;;;;-145.18;100.00;46642.81;5032878;28;20048;-60
2023/10/11 06:06:24;;;;;;;25.43;11.27;;;;;;;-145.18;100.00;46640.88;5032322;28;20033;-60
2023/10/11 06:08:58;;;;;;;26.67;11.93;;;;;;;-145.18;100.00;46638.91;5032497;28;20033;-60
2023/10/11 06:11:29;;;;;;;23.10;11.87;;;;;;;-145.18;100.00;46640.88;5032603;28;20029;-60
2023/10/11 06:13:57;;;;;;;23.83;11.70;;;;;;;-145.18;100.00;46640.88;5032772;28;20037;-60
2023/10/11 06:16:23;;;;;;;20.70;10.93;;;;;;;-145.18;100.00;46660.41;5032128;28;20481;-60
2023/10/11 06:19:16;;;;;;;21.87;11.80;;;;;;;-145.18;100.00;46636.94;5032311;28;20101;-60
2023/10/11 06:22:00;;;;;;;22.60;10.93;;;;;;;-145.18;100.00;46660.41;5032467;28;20485;-60
2023/10/11 06:24:30;;;;;;;24.37;12.30;;;;;;;-145.18;100.00;46636.94;5031750;28;20041;-65
2023/10/11 06:27:11;;;;;;;24.03;11.33;;;;;;;-145.18;100.00;46640.88;5032180;28;20033;-65
2023/10/11 06:29:53;;;;;;;20.43;10.73;;;;;;;-145.18;100.00;46660.41;5031903;28;20482;-65
2023/10/11 06:32:22;;;;;;;21.60;11.43;;;;;;;-145.18;100.00;46660.41;5031921;28;20049;-65
2023/10/11 06:34:47;;;;;;;20.57;12.23;;;;;;;-145.18;100.00;46636.94;5031889;28;20564;-65
2023/10/11 06:37:17;;;;;;;23.40;11.43;;;;;;;-145.18;100.00;46635.00;5032185;28;20113;-64
2023/10/11 06:44:59;;;;;;;23.17;12.60;;;;;;;-145.18;100.00;46636.94;5032010;28;20037;-65
2023/10/11 06:47:36;;;;;;;22.50;12.50;;;;;;;-145.18;100.00;46642.81;5031795;28;20393;-65
2023/10/11 06:50:12;;;;;;;22.17;11.67;;;;;;;-145.18;100.00;46636.94;5031496;28;20044;-65
2023/10/11 06:52:45;;;;;;;26.40;12.80;;;;;;;-145.18;100.00;46633.06;5031976;28;20184;-65
2023/10/11 06:55:17;;;;;;;30.37;13.57;;;;;;;-145.18;100.00;46635.00;5031709;28;20152;-65
2023/10/11 06:57:50;;;;;;;26.37;13.00;;;;;;;-145.18;100.00;46636.94;5031872;28;20030;-65
2023/10/11 07:00:23;;;;;;;29.57;13.40;;;;;;;-145.18;100.00;46635.00;5031586;28;20025;-65
2023/10/11 07:02:54;;;;;;;27.77;13.83;;;;;;;-145.18;100.00;46635.00;5031710;28;20104;-65
2023/10/11 07:05:21;;;;;;;29.43;12.80;;;;;;;-145.18;100.00;46635.00;5031692;28;20045;-65
2023/10/11 07:07:52;;;;;;;28.23;13.47;;;;;;;-145.18;100.00;46636.94;5031279;28;20029;-65
2023/10/11 07:10:34;;;;;;;25.97;13.17;;;;;;;-145.18;100.00;46631.09;5031218;28;20037;-65
2023/10/11 07:13:03;;;;;;;23.83;13.17;;;;;;;-145.18;100.00;46629.13;5030532;28;20025;-65
2023/10/11 07:15:43;;;;;;;26.87;13.40;;;;;;;-145.18;100.00;46660.41;5031680;28;20037;-65
2023/10/11 07:18:27;;;;;;;24.23;12.87;;;;;;;-145.18;100.00;46631.09;5031535;28;20018;-65
2023/10/11 07:21:09;;;;;;;31.43;13.40;;;;;;;-145.18;100.00;46629.13;5031319;28;20065;-65
2023/10/11 07:26:23;;;;;;;29.03;14.10;;;;;;;-145.18;100.00;46633.06;5030744;28;20037;-65
2023/10/11 07:28:52;;;;;;;29.97;13.83;;;;;;;-145.18;100.00;46633.06;5031518;28;20040;-65
2023/10/11 07:31:27;;;;;;;31.93;15.00;;;;;;;-145.18;100.00;46629.13;5031372;28;20025;-65
2023/10/11 07:33:55;;;;;;;27.02;15.15;;;;;;;-145.18;100.00;46660.41;5031611;28;20025;-65
2023/10/11 07:36:22;;;;;;;27.33;16.00;;;;;;;-145.18;100.00;46629.13;5031076;28;20030;-65
2023/10/11 07:38:54;;;;;;;30.17;15.57;;;;;;;-145.18;100.00;46660.41;5031334;28;20029;-65
2023/10/11 07:41:27;;;;;;;31.47;14.57;;;;;;;-145.18;100.00;46660.41;5031535;28;20025;-65
2023/10/11 07:43:55;;;;;;;29.73;14.60;;;;;;;-145.18;100.00;46631.09;5031014;28;20026;-65
2023/10/11 07:46:21;;;;;;;28.63;15.83;;;;;;;-145.18;100.00;46631.09;5029692;28;20033;-65
2023/10/11 07:48:46;;;;;;;29.63;15.17;;;;;;;-145.18;100.00;46660.41;5031189;28;20030;-65
2023/10/11 07:51:12;;;;;;;32.07;16.30;;;;;;;-145.18;100.00;46660.41;5030892;28;20521;-65
2023/10/11 07:53:43;;;;;;;30.30;15.60;;;;;;;-145.18;100.00;46660.41;5029633;28;20597;-65
2023/10/11 07:56:09;;;;;;;29.30;16.53;;;;;;;-145.18;100.00;46660.41;5033881;28;20025;-65
2023/10/11 07:58:45;;;;;;;30.13;16.20;;;;;;;-145.18;100.00;46629.13;5035189;28;20144;-65
2023/10/11 08:03:56;;;;;;;31.05;17.67;;;;;;;-145.18;100.00;46660.41;5024667;28;20459;-65
2023/10/11 08:06:25;;;;;;;27.60;16.30;;;;;;;-145.18;100.00;46660.41;5034715;28;20037;-65
2023/10/11 08:08:58;;;;;;;35.43;17.20;;;;;;;-145.18;100.00;46660.41;5034583;28;20029;-65
2023/10/11 08:11:27;;;;;;;35.13;17.70;;;;;;;-145.18;100.00;46623.28;5034641;28;20021;-65
2023/10/11 08:14:00;;;;;;;31.43;16.97;;;;;;;-145.18;100.00;46623.28;5034989;28;20103;-65
2023/10/11 08:16:26;;;;;;;31.63;18.70;;;;;;;-145.18;100.00;46625.22;5064520;28;20385;-65
2023/10/11 08:18:51;;;;;;;34.73;18.80;;;;;;;-145.18;100.00;46623.28;5035017;28;20033;-65
2023/10/11 08:21:17;;;;;;;33.63;18.87;;;;;;;-145.18;100.00;46625.22;5034542;28;20021;-65
2023/10/11 08:23:43;;;;;;;38.50;18.60;;;;;;;-145.18;100.00;46621.31;5034606;28;20025;-65
2023/10/11 08:26:14;;;;;;;32.33;17.40;;;;;;;-145.18;100.00;46621.31;5034192;28;20049;-65
2023/10/11 08:28:48;;;;;;;37.50;17.83;;;;;;;-145.18;100.00;46621.31;5034578;28;20037;-65
2023/10/11 08:31:39;;;;;;;36.70;18.43;;;;;;;-145.18;100.00;46660.41;5034065;28;20056;-65
2023/10/11 08:34:03;;;;;;;49.77;20.83;;;;;;;-145.18;100.00;46660.41;5034104;28;20041;-65
2023/10/11 08:36:30;;;;;;;47.10;21.33;;;;;;;-145.18;100.00;46627.19;5033145;28;20038;-65
2023/10/11 08:39:08;;;;;;;43.50;21.43;;;;;;;-145.18;100.00;46660.41;5034184;28;20445;-65
2023/10/11 08:41:34;;;;;;;42.47;20.75;;;;;;;-145.18;100.00;46660.41;5034281;28;20029;-65
2023/10/11 08:44:15;;;;;;;36.27;21.70;;;;;;;-145.18;100.00;46660.41;5033977;28;20079;-65
2023/10/11 08:46:45;;;;;;;46.00;21.73;;;;;;;-145.18;100.00;46660.41;5032852;28;20048;-65
2023/10/11 08:49:12;;;;;;;47.23;22.93;;;;;;;-145.18;100.00;46660.41;5034374;28;20025;-65
2023/10/11 08:51:41;;;;;;;51.30;23.90;;;;;;;-145.18;100.00;46660.41;5033904;28;20159;-65
2023/10/11 08:54:11;;;;;;;46.93;23.77;;;;;;;-145.18;100.00;46658.44;5033972;28;20055;-65
2023/10/11 08:56:43;;;;;;;43.57;22.30;;;;;;;-145.18;100.00;46660.41;5032940;28;20378;-65
2023/10/11 08:59:14;;;;;;;48.57;22.27;;;;;;;-145.18;100.00;46658.44;5034153;28;20029;-65
2023/10/11 09:01:45;;;;;;;46.33;21.77;;;;;;;-145.18;100.00;46658.44;5033716;28;20128;-66
2023/10/11 09:04:15;;;;;;;42.67;22.93;;;;;;;-145.18;100.00;46660.41;5033823;28;20036;-65
2023/10/11 09:06:45;;;;;;;45.50;21.13;;;;;;;-145.18;100.00;46660.41;5032017;28;20055;-66
2023/10/11 09:09:36;;;;;;;46.53;21.93;;;;;;;-145.18;100.00;46656.50;5033754;28;20065;-65
2023/10/11 09:12:23;;;;;;;41.13;21.10;;;;;;;-145.18;100.00;46658.44;5023316;28;20493;-65
2023/10/11 09:14:58;;;;;;;44.45;22.65;;;;;;;-145.18;100.00;46658.44;5032364;28;20116;-65
2023/10/11 09:17:26;;;;;;;41.90;21.43;;;;;;;-145.18;100.00;46656.50;5033706;28;20026;-65
2023/10/11 09:19:58;;;;;;;51.40;21.87;;;;;;;-145.18;100.00;46656.50;5020979;28;20033;-65
2023/10/11 09:22:24;;;;;;;46.20;22.07;;;;;;;-145.18;100.00;46658.44;5033116;28;20429;-65
2023/10/11 09:25:21;;;;;;;46.07;22.13;;;;;;;-145.18;100.00;46654.53;5033434;28;20049;-65
2023/10/11 09:27:50;;;;;;;42.43;21.70;;;;;;;-145.18;100.00;46656.50;5032343;28;20029;-66
2023/10/11 09:30:19;;;;;;;39.10;21.40;;;;;;;-145.18;100.00;46617.41;5033209;28;20486;-65
2023/10/11 09:32:49;;;;;;;44.87;22.43;;;;;;;-145.18;100.00;46654.53;5032788;28;20096;-65
2023/10/11 09:35:28;;;;;;;49.40;22.93;;;;;;;-145.18;100.00;46654.53;5032887;28;20108;-65
2023/10/11 09:37:57;;;;;;;45.77;21.20;;;;;;;-145.18;100.00;46615.47;5033280;28;20029;-65
2023/10/11 09:40:27;;;;;;;48.13;20.93;;;;;;;-145.18;100.00;46617.41;5033385;28;20030;-65
2023/10/11 09:42:57;;;;;;;40.47;21.50;;;;;;;-145.18;100.00;46615.47;5033256;28;20104;-65
2023/10/11 09:45:28;;;;;;;45.67;22.13;;;;;;;-145.18;100.00;46615.47;5032988;28;20021;-65
2023/10/11 09:47:54;;;;;;;39.37;21.43;;;;;;;-145.18;100.00;46654.53;5032933;28;20484;-65
2023/10/11 09:50:22;;;;;;;51.93;23.27;;;;;;;-145.18;100.00;46615.47;5031405;28;20393;-65
2023/10/11 09:52:51;;;;;;;58.10;22.17;;;;;;;-145.18;100.00;46615.47;5033005;28;20492;-61
2023/10/11 09:55:31;;;;;;;46.20;22.00;;;;;;;-145.18;100.00;46613.50;5032804;28;20375;-60
2023/10/11 09:58:12;;;;;;;39.97;20.77;;;;;;;-145.18;100.00;46613.50;5033046;28;20021;-61
2023/10/11 10:00:50;;;;;;;44.57;21.13;;;;;;;-145.18;100.00;46615.47;5033058;28;20096;-61
2023/10/11 10:03:16;;;;;;;48.97;21.70;;;;;;;-145.18;100.00;46654.53;5023649;28;20488;-61
2023/10/11 10:06:05;;;;;;;43.63;21.23;;;;;;;-145.18;100.00;46615.47;5032600;28;20040;-61
2023/10/11 10:08:30;;;;;;;45.70;21.57;;;;;;;-145.18;100.00;46619.38;5063886;28;20021;-61
2023/10/11 10:10:56;;;;;;;41.63;20.30;;;;;;;-145.18;100.00;46619.38;5031754;28;20082;-61
2023/10/11 10:13:24;;;;;;;42.33;21.03;;;;;;;-145.18;100.00;46654.53;5031254;28;20060;-61
2023/10/11 10:15:52;;;;;;;41.70;19.47;;;;;;;-145.18;100.00;46617.41;5032395;28;20119;-61
2023/10/11 10:18:22;;;;;;;35.73;18.00;;;;;;;-145.18;100.00;46617.41;5031263;28;20100;-61
2023/10/11 10:21:02;;;;;;;39.77;19.33;;;;;;;-145.18;100.00;46619.38;5030977;28;20120;-61
2023/10/11 10:23:29;;;;;;;40.13;18.23;;;;;;;-145.18;100.00;46621.31;5023896;28;20051;-61
2023/10/11 10:26:21;;;;;;;42.10;19.87;;;;;;;-145.18;100.00;46615.47;5028520;28;20052;-61
2023/10/11 10:28:49;;;;;;;35.83;17.97;;;;;;;-145.18;100.00;46621.31;5027890;28;20060;-61
2023/10/11 10:31:20;;;;;;;35.07;16.83;;;;;;;-145.18;100.00;46617.41;5026511;28;20524;-61
2023/10/11 10:34:16;;;;;;;41.23;18.13;;;;;;;-145.18;100.00;46625.22;5032436;28;20033;-61
2023/10/11 10:36:43;;;;;;;32.97;15.85;;;;;;;-145.18;100.00;46621.31;5032286;28;20028;-61
2023/10/11 10:41:39;;;;;;;42.13;16.90;;;;;;;-145.18;100.00;46619.38;5031782;28;20035;-61
2023/10/11 10:44:11;;;;;;;27.70;14.77;;;;;;;-145.18;100.00;46625.22;5027762;28;20088;-61
2023/10/11 10:46:59;;;;;;;35.73;15.57;;;;;;;-145.18;100.00;46625.22;5024892;28;20108;-61
2023/10/11 10:49:53;;;;;;;27.03;13.77;;;;;;;-145.18;100.00;46627.19;5026962;28;20018;-60
2023/10/11 10:52:30;;;;;;;29.30;14.27;;;;;;;-145.18;100.00;46627.19;5029807;28;20495;-61
2023/10/11 10:55:04;;;;;;;26.87;13.90;;;;;;;-145.18;100.00;46629.13;5025611;28;20028;-61
2023/10/11 10:57:36;;;;;;;25.37;13.10;;;;;;;-145.18;100.00;46629.13;5030378;28;20028;-61
2023/10/11 11:00:05;;;;;;;25.70;13.90;;;;;;;-145.18;100.00;46631.09;5031486;28;20029;-61
2023/10/11 11:02:37;;;;;;;30.20;12.70;;;;;;;-145.18;100.00;46633.06;5031784;28;20052;-61
2023/10/11 11:05:15;;;;;;;37.43;14.73;;;;;;;-145.18;100.00;46629.13;5031496;28;20160;-61
2023/10/11 11:07:47;;;;;;;27.43;13.13;;;;;;;-145.18;100.00;46631.09;5025968;28;20112;-61
2023/10/11 11:10:20;;;;;;;31.77;12.80;;;;;;;-145.18;100.00;46636.94;5028253;28;20028;-61
2023/10/11 11:12:46;;;;;;;32.10;13.17;;;;;;;-145.18;100.00;46627.19;5030267;28;20115;-61
2023/10/11 11:15:20;;;;;;;25.57;13.20;;;;;;;-145.18;100.00;46636.94;5026372;28;20120;-61
2023/10/11 11:17:48;;;;;;;27.27;12.93;;;;;;;-145.18;100.00;46633.06;5026022;28;20026;-61
2023/10/11 11:20:15;;;;;;;29.43;12.87;;;;;;;-145.18;100.00;46629.13;5024716;28;20032;-61
2023/10/11 11:22:46;;;;;;;27.37;13.20;;;;;;;-145.18;100.00;46633.06;5026691;28;20033;-61
2023/10/11 11:28:17;;;;;;;27.53;12.17;;;;;;;-145.18;100.00;46633.06;5027706;28;20044;-61
2023/10/11 11:34:15;;;;;;;25.30;11.50;;;;;;;-145.18;100.00;46633.06;5015135;28;20080;-61
2023/10/11 11:36:41;;;;;;;27.37;12.77;;;;;;;-145.18;100.00;46635.00;5032734;28;20041;-61
2023/10/11 11:39:27;;;;;;;26.10;12.00;;;;;;;-145.18;100.00;46633.06;5031196;28;20564;-61
2023/10/11 11:41:53;;;;;;;;;;;;;;;-145.18;100.00;46633.06;5037546;28;20036;-62
2023/10/11 11:44:22;;;;;;;;;;;;;;;-145.18;100.00;46635.00;5038056;28;19921;-61
2023/10/11 11:46:52;;;;;;;23.13;11.13;;;;;;;-145.18;100.00;46636.94;5034665;28;20265;-61
2023/10/11 11:49:23;;;;;;;27.57;12.93;;;;;;;-145.18;100.00;46636.94;5037459;28;20025;-61
2023/10/11 11:51:52;;;;;;;34.23;13.60;;;;;;;-145.18;100.00;46636.94;5037031;28;20033;-58
2023/10/11 11:54:19;;;;;;;29.67;13.50;;;;;;;-145.18;100.00;46642.81;5034266;28;20029;-61
2023/10/11 11:56:45;;;;;;;30.93;14.57;;;;;;;-145.18;100.00;46635.00;5037550;28;20028;-61
2023/10/11 11:59:19;;;;;;;35.83;15.47;;;;;;;-145.18;100.00;46642.81;5030264;28;20033;-61
2023/10/11 12:01:49;;;;;;;30.40;15.83;;;;;;;-145.18;100.00;46638.91;5026387;28;20107;-61
2023/10/11 12:04:19;;;;;;;37.83;16.57;;;;;;;-145.18;100.00;46635.00;5037723;28;20021;-61
2023/10/11 12:06:46;;;;;;;29.57;14.17;;;;;;;-145.18;100.00;46635.00;5037575;28;20080;-61
2023/10/11 12:09:20;;;;;;;36.20;15.77;;;;;;;-145.18;100.00;46636.94;5031702;28;20029;-61
2023/10/11 12:11:49;;;;;;;31.97;14.47;;;;;;;-145.18;100.00;46635.00;5029200;28;20040;-66
2023/10/11 12:14:15;;;;;;;27.77;13.93;;;;;;;-145.18;100.00;46635.00;5030819;28;20104;-65
2023/10/11 12:16:44;;;;;;;33.13;13.70;;;;;;;-145.18;100.00;46636.94;5028086;28;20034;-66
2023/10/11 12:19:14;;;;;;;29.97;13.33;;;;;;;-145.18;100.00;46635.00;5030677;28;20026;-65
2023/10/11 12:21:40;;;;;;;26.27;12.63;;;;;;;-145.18;100.00;46640.88;5034260;28;20029;-65
2023/10/11 12:24:11;;;;;;;29.57;12.53;;;;;;;-145.18;100.00;46640.88;5034177;28;20132;-65